Time;durP1;ratioP1;P1;durP2;ratioP2;P2;SDS_P1;SDS_P2;PMS_P1;PMS_P2;Temp;Humidity;BMP_temperature;BMP_pressure;BME280_temperature;BME280_humidity;BME280_pressure;Samples;Min_cycle;Max_cycle;Signal;HPM_P1;HPM_P2
2020/12/13 00:00:12;;;;;;;63.17;32.40;;;5.00;99.90;;;;;;5037459;28;20484;-62
2020/12/13 00:02:38;;;;;;;63.33;29.87;;;5.00;99.90;;;;;;5037573;28;20456;-60
2020/12/13 00:05:06;;;;;;;66.23;30.33;;;5.00;99.90;;;;;;5038236;28;20806;-62
2020/12/13 00:07:32;;;;;;;59.33;31.90;;;5.00;99.90;;;;;;5038191;28;20460;-60
2020/12/13 00:09:58;;;;;;;60.97;32.13;;;5.00;99.90;;;;;;5037174;28;20456;-61
2020/12/13 00:12:24;;;;;;;73.70;32.80;;;5.00;99.90;;;;;;5037435;28;20455;-61
2020/12/13 00:14:50;;;;;;;66.70;29.20;;;4.90;99.90;;;;;;5037107;28;20487;-61
2020/12/13 00:17:17;;;;;;;65.57;32.33;;;5.00;99.90;;;;;;5036942;28;20518;-60
2020/12/13 00:19:43;;;;;;;65.90;30.77;;;4.90;99.90;;;;;;5036958;28;20517;-61
2020/12/13 00:22:10;;;;;;;63.13;32.10;;;5.00;99.90;;;;;;5036735;28;20530;-60
2020/12/13 00:24:36;;;;;;;71.03;32.60;;;5.00;99.90;;;;;;5037525;28;20456;-61
2020/12/13 00:27:02;;;;;;;69.33;34.27;;;5.00;99.90;;;;;;5040117;28;20909;-61
2020/12/13 00:29:28;;;;;;;64.00;30.43;;;5.00;99.90;;;;;;5040438;28;20464;-60
2020/12/13 00:31:54;;;;;;;63.10;30.90;;;5.00;99.90;;;;;;5041214;28;20456;-62
2020/12/13 00:34:20;;;;;;;67.23;32.43;;;5.00;99.90;;;;;;5038924;28;20890;-67
2020/12/13 00:36:50;;;;;;;66.40;30.97;;;5.00;99.90;;;;;;5036192;28;20978;-71
2020/12/13 00:39:17;;;;;;;66.70;32.33;;;5.00;99.90;;;;;;5043488;28;20456;-72
2020/12/13 00:41:48;;;;;;;70.77;32.50;;;4.90;99.90;;;;;;5042283;28;20480;-71
2020/12/13 00:44:14;;;;;;;60.37;31.97;;;4.90;99.90;;;;;;5041744;28;20432;-69
2020/12/13 00:46:41;;;;;;;64.87;32.37;;;4.80;99.90;;;;;;5036624;28;20456;-70
2020/12/13 00:49:07;;;;;;;63.67;32.60;;;4.70;99.90;;;;;;5036490;28;20452;-70
2020/12/13 00:51:33;;;;;;;68.87;31.93;;;4.70;99.90;;;;;;5036997;28;20452;-70
2020/12/13 00:53:59;;;;;;;68.70;31.53;;;4.60;99.90;;;;;;5036808;28;20897;-70
2020/12/13 00:56:26;;;;;;;78.77;33.07;;;4.60;99.90;;;;;;5036822;28;20460;-69
2020/12/13 00:58:52;;;;;;;76.10;34.27;;;4.60;99.90;;;;;;5036876;28;20460;-70
2020/12/13 01:01:18;;;;;;;69.97;33.67;;;4.60;99.90;;;;;;5036658;28;20518;-61
2020/12/13 01:03:44;;;;;;;66.33;32.50;;;4.60;99.90;;;;;;5036839;28;20456;-61
2020/12/13 01:06:10;;;;;;;70.63;32.47;;;4.50;99.90;;;;;;5036329;28;20456;-61
2020/12/13 01:08:36;;;;;;;74.13;33.13;;;4.50;99.90;;;;;;5036718;28;20468;-60
2020/12/13 01:11:02;;;;;;;63.20;32.00;;;4.50;99.90;;;;;;5036651;28;20510;-59
2020/12/13 01:13:29;;;;;;;70.27;33.07;;;4.50;99.90;;;;;;5036148;28;20456;-58
2020/12/13 01:15:55;;;;;;;64.47;32.27;;;4.50;99.90;;;;;;5036173;28;20452;-53
2020/12/13 01:18:21;;;;;;;64.90;30.60;;;4.50;99.90;;;;;;5035957;28;20510;-59
2020/12/13 01:20:47;;;;;;;76.97;32.30;;;4.50;99.90;;;;;;5036426;28;20479;-64
2020/12/13 01:23:13;;;;;;;81.40;34.20;;;4.60;99.90;;;;;;5038186;28;20440;-64
2020/12/13 01:25:40;;;;;;;72.47;33.00;;;4.60;99.90;;;;;;5036020;28;20463;-64
2020/12/13 01:28:06;;;;;;;78.23;36.53;;;4.70;99.90;;;;;;5035722;28;20491;-64
2020/12/13 01:30:32;;;;;;;77.33;33.93;;;4.70;99.90;;;;;;5035915;28;20448;-65
2020/12/13 01:32:59;;;;;;;70.60;32.80;;;4.70;99.90;;;;;;5036293;28;20456;-63
2020/12/13 01:35:25;;;;;;;74.47;31.73;;;4.80;99.90;;;;;;5035421;28;20503;-65
2020/12/13 01:37:52;;;;;;;75.10;34.63;;;4.80;99.90;;;;;;5035650;28;21012;-63
2020/12/13 01:40:18;;;;;;;72.03;34.00;;;4.80;99.90;;;;;;5035844;28;20761;-63
2020/12/13 01:42:44;;;;;;;81.93;35.70;;;4.80;99.90;;;;;;5035919;28;20518;-63
2020/12/13 01:45:18;;;;;;;65.90;31.80;;;4.80;99.90;;;;;;5035255;28;20452;-63
2020/12/13 01:47:46;;;;;;;76.80;33.90;;;4.80;99.90;;;;;;5034671;28;20902;-63
2020/12/13 01:50:23;;;;;;;77.10;32.80;;;4.80;99.90;;;;;;5034791;28;20456;-63
2020/12/13 01:52:49;;;;;;;62.43;30.90;;;4.80;99.90;;;;;;5035400;28;20440;-63
2020/12/13 01:55:17;;;;;;;70.70;34.53;;;4.80;99.90;;;;;;5035107;28;20814;-63
2020/12/13 01:57:47;;;;;;;79.80;34.57;;;4.80;99.90;;;;;;5034972;28;20525;-63
2020/12/13 02:00:16;;;;;;;68.23;32.60;;;4.90;99.90;;;;;;5035081;28;20539;-62
2020/12/13 02:02:47;;;;;;;68.90;32.73;;;4.80;99.90;;;;;;5035087;28;20448;-63
2020/12/13 02:05:15;;;;;;;69.30;32.10;;;4.80;99.90;;;;;;5035375;28;20494;-61
2020/12/13 02:07:41;;;;;;;75.33;33.23;;;4.80;99.90;;;;;;5034967;28;20522;-60
2020/12/13 02:10:10;;;;;;;74.67;34.33;;;4.80;99.90;;;;;;5035770;28;20456;-60
2020/12/13 02:12:36;;;;;;;79.47;32.27;;;4.80;99.90;;;;;;5034849;28;20452;-60
2020/12/13 02:15:04;;;;;;;73.27;34.57;;;4.80;99.90;;;;;;5035297;28;20464;-60
2020/12/13 02:17:31;;;;;;;71.47;31.90;;;4.90;99.90;;;;;;5034995;28;20525;-60
2020/12/13 02:19:58;;;;;;;69.60;32.93;;;4.90;99.90;;;;;;5034886;28;20838;-60
2020/12/13 02:22:25;;;;;;;72.03;33.97;;;4.90;99.90;;;;;;5035036;28;20546;-62
2020/12/13 02:24:51;;;;;;;70.90;33.23;;;4.90;99.90;;;;;;5035003;28;20526;-61
2020/12/13 02:27:17;;;;;;;69.90;32.77;;;4.90;99.90;;;;;;5034850;28;20511;-61
2020/12/13 02:29:43;;;;;;;68.67;32.17;;;4.90;99.90;;;;;;5035336;28;20584;-61
2020/12/13 02:32:09;;;;;;;65.80;32.13;;;4.90;99.90;;;;;;5035260;28;20452;-60
2020/12/13 02:34:35;;;;;;;67.43;31.77;;;4.90;99.90;;;;;;5034585;28;20870;-63
2020/12/13 02:37:01;;;;;;;67.70;31.97;;;4.90;99.90;;;;;;5035701;28;20456;-63
2020/12/13 02:39:28;;;;;;;82.83;33.40;;;4.90;99.90;;;;;;5034975;28;20457;-61
2020/12/13 02:41:58;;;;;;;64.73;32.30;;;4.90;99.90;;;;;;5035000;28;20476;-63
2020/12/13 02:44:25;;;;;;;65.60;32.83;;;4.90;99.90;;;;;;5034956;28;20467;-62
2020/12/13 02:46:51;;;;;;;63.33;31.73;;;4.90;99.90;;;;;;5034521;28;20462;-63
2020/12/13 02:49:17;;;;;;;62.50;30.43;;;4.90;99.90;;;;;;5034844;28;20462;-63
2020/12/13 02:51:43;;;;;;;71.00;32.97;;;4.90;99.90;;;;;;5035101;28;20448;-62
2020/12/13 02:54:10;;;;;;;71.57;31.90;;;5.00;99.90;;;;;;5034873;28;20490;-60
2020/12/13 02:56:40;;;;;;;63.10;30.93;;;4.90;99.90;;;;;;5035383;28;20456;-60
2020/12/13 02:59:06;;;;;;;72.73;32.07;;;4.90;99.90;;;;;;5036479;28;20497;-61
2020/12/13 03:01:33;;;;;;;65.20;31.57;;;5.00;99.90;;;;;;5038999;28;20893;-60
2020/12/13 03:03:59;;;;;;;64.63;30.20;;;5.00;99.90;;;;;;5038653;28;20554;-60
2020/12/13 03:06:25;;;;;;;68.10;31.77;;;4.90;99.90;;;;;;5038862;28;20529;-60
2020/12/13 03:08:51;;;;;;;65.77;30.30;;;5.00;99.90;;;;;;5038462;28;20893;-61
2020/12/13 03:11:20;;;;;;;65.03;31.20;;;5.00;99.90;;;;;;5038390;28;20479;-60
2020/12/13 03:13:47;;;;;;;70.03;33.10;;;4.90;99.90;;;;;;5038537;28;20826;-60
2020/12/13 03:16:13;;;;;;;68.87;32.40;;;5.00;99.90;;;;;;5038401;28;20455;-61
2020/12/13 03:18:39;;;;;;;65.20;29.23;;;5.00;99.90;;;;;;5037961;28;20452;-61
2020/12/13 03:21:05;;;;;;;72.40;31.23;;;4.90;99.90;;;;;;5038320;28;20526;-60
2020/12/13 03:23:32;;;;;;;64.87;31.33;;;5.00;99.90;;;;;;5039060;28;20511;-60
2020/12/13 03:25:58;;;;;;;60.63;31.80;;;4.90;99.90;;;;;;5038186;28;20452;-59
2020/12/13 03:28:24;;;;;;;69.70;31.07;;;4.90;99.90;;;;;;5038048;28;20576;-61
2020/12/13 03:30:51;;;;;;;60.57;32.40;;;4.90;99.90;;;;;;5038926;28;20529;-61
2020/12/13 03:33:17;;;;;;;62.73;31.30;;;4.90;99.90;;;;;;5039722;28;20452;-61
2020/12/13 03:35:43;;;;;;;70.93;29.87;;;4.90;99.90;;;;;;5038691;28;20452;-61
2020/12/13 03:38:09;;;;;;;65.83;33.13;;;4.90;99.90;;;;;;5041768;28;20456;-60
2020/12/13 03:40:35;;;;;;;72.37;31.97;;;4.90;99.90;;;;;;5039613;28;20506;-60
2020/12/13 03:43:01;;;;;;;77.93;35.03;;;4.90;99.90;;;;;;5037883;28;20526;-60
2020/12/13 03:45:27;;;;;;;75.10;34.47;;;4.90;99.90;;;;;;5037830;28;20886;-60
2020/12/13 03:47:54;;;;;;;63.87;32.13;;;4.90;99.90;;;;;;5037653;28;20542;-60
2020/12/13 03:50:20;;;;;;;73.13;31.80;;;4.90;99.90;;;;;;5037325;28;20515;-61
2020/12/13 03:52:46;;;;;;;77.10;33.93;;;4.80;99.90;;;;;;5037749;28;20456;-60
2020/12/13 03:55:12;;;;;;;69.20;34.50;;;4.80;99.90;;;;;;5037329;28;20921;-59
2020/12/13 03:57:38;;;;;;;72.03;32.50;;;4.80;99.90;;;;;;5037450;28;20518;-60
2020/12/13 04:00:05;;;;;;;85.90;32.60;;;4.80;99.90;;;;;;5037345;28;20514;-62
2020/12/13 04:02:31;;;;;;;82.37;34.47;;;4.70;99.90;;;;;;5037229;28;20494;-60
2020/12/13 04:04:58;;;;;;;79.63;32.80;;;4.70;99.90;;;;;;5037210;28;20456;-60
2020/12/13 04:07:24;;;;;;;72.83;32.63;;;4.70;99.90;;;;;;5037338;28;20522;-58
2020/12/13 04:09:50;;;;;;;77.90;33.97;;;4.70;99.90;;;;;;5037474;28;20519;-59
2020/12/13 04:12:16;;;;;;;91.10;35.80;;;4.70;99.90;;;;;;5036038;28;20985;-61
2020/12/13 04:14:42;;;;;;;78.73;33.47;;;4.60;99.90;;;;;;5037246;28;20452;-61
2020/12/13 04:17:08;;;;;;;78.67;33.97;;;4.60;99.90;;;;;;5037212;28;20456;-60
2020/12/13 04:19:35;;;;;;;76.40;33.03;;;4.60;99.90;;;;;;5036705;28;20456;-60
2020/12/13 04:22:02;;;;;;;70.73;31.83;;;4.60;99.90;;;;;;5036991;28;20554;-60
2020/12/13 04:24:28;;;;;;;72.33;32.63;;;4.60;99.90;;;;;;5037471;28;20459;-60
2020/12/13 04:26:54;;;;;;;83.33;33.33;;;4.60;99.90;;;;;;5037188;28;20456;-61
2020/12/13 04:29:20;;;;;;;78.40;35.13;;;4.70;99.90;;;;;;5036862;28;20464;-60
2020/12/13 04:31:46;;;;;;;84.70;36.47;;;4.70;99.90;;;;;;5039671;28;20479;-61
2020/12/13 04:34:13;;;;;;;75.23;33.20;;;4.70;99.90;;;;;;5042546;28;20460;-60
2020/12/13 04:36:39;;;;;;;73.90;32.27;;;4.70;99.90;;;;;;5040652;28;20468;-59
2020/12/13 04:39:06;;;;;;;81.60;34.87;;;4.70;99.90;;;;;;5040654;28;20463;-60
2020/12/13 04:41:33;;;;;;;76.10;32.30;;;4.70;99.90;;;;;;5038727;28;20480;-66
2020/12/13 04:44:00;;;;;;;84.07;34.53;;;4.80;99.90;;;;;;5036883;28;20452;-65
2020/12/13 04:46:30;;;;;;;86.30;34.80;;;4.70;99.90;;;;;;5036496;28;20456;-65
2020/12/13 04:48:56;;;;;;;82.87;34.10;;;4.80;99.90;;;;;;5036365;28;20453;-60
2020/12/13 04:51:26;;;;;;;73.73;31.10;;;4.70;99.90;;;;;;5036539;28;20448;-60
2020/12/13 04:54:02;;;;;;;88.27;36.33;;;4.70;99.90;;;;;;5037130;28;20456;-58
2020/12/13 04:56:33;;;;;;;81.47;32.00;;;4.80;99.90;;;;;;5036425;28;20435;-58
2020/12/13 04:59:01;;;;;;;80.73;35.30;;;4.80;99.90;;;;;;5036561;28;20441;-58
2020/12/13 05:01:27;;;;;;;71.33;30.50;;;4.80;99.90;;;;;;5036342;28;20491;-57
2020/12/13 05:03:53;;;;;;;78.80;32.33;;;4.80;99.90;;;;;;5036057;28;20463;-57
2020/12/13 05:06:19;;;;;;;72.53;32.27;;;4.80;99.90;;;;;;5036322;28;20463;-64
2020/12/13 05:08:47;;;;;;;71.70;32.93;;;4.80;99.90;;;;;;5036238;28;20514;-64
2020/12/13 05:11:13;;;;;;;75.13;32.33;;;4.80;99.90;;;;;;5036113;28;20515;-64
2020/12/13 05:13:40;;;;;;;69.13;30.37;;;4.80;99.90;;;;;;5036207;28;20456;-64
2020/12/13 05:16:07;;;;;;;77.43;33.43;;;4.80;99.90;;;;;;5035807;28;20941;-64
2020/12/13 05:18:36;;;;;;;72.57;32.03;;;4.80;99.90;;;;;;5035841;28;20841;-64
2020/12/13 05:21:04;;;;;;;80.67;35.33;;;4.80;99.90;;;;;;5035909;28;20562;-64
2020/12/13 05:23:30;;;;;;;84.30;35.00;;;4.80;99.90;;;;;;5039015;28;20926;-64
2020/12/13 05:25:56;;;;;;;77.47;34.80;;;4.80;99.90;;;;;;5035793;28;20487;-65
2020/12/13 05:28:24;;;;;;;82.87;33.93;;;4.80;99.90;;;;;;5036074;28;20554;-65
2020/12/13 05:30:52;;;;;;;80.17;33.90;;;4.80;99.90;;;;;;5035700;28;20458;-65
2020/12/13 05:33:24;;;;;;;85.40;32.97;;;4.70;99.90;;;;;;5035678;28;20842;-65
2020/12/13 05:35:58;;;;;;;76.17;34.80;;;4.70;99.90;;;;;;5035766;28;20514;-64
2020/12/13 05:38:24;;;;;;;70.23;34.50;;;4.70;99.90;;;;;;5035473;28;20436;-64
2020/12/13 05:40:50;;;;;;;77.13;32.07;;;4.70;99.90;;;;;;5035519;28;20479;-65
2020/12/13 05:43:21;;;;;;;77.53;32.90;;;4.70;99.90;;;;;;5035624;28;20531;-65
2020/12/13 05:46:15;;;;;;;85.33;33.77;;;4.70;99.90;;;;;;5036169;28;20510;-65
2020/12/13 05:48:55;;;;;;;72.93;31.90;;;4.70;99.90;;;;;;5035509;28;20754;-63
2020/12/13 05:51:26;;;;;;;75.97;31.80;;;4.70;99.90;;;;;;5035566;28;20448;-63
2020/12/13 05:53:54;;;;;;;86.10;34.20;;;4.70;99.90;;;;;;5035325;28;20440;-64
2020/12/13 05:56:21;;;;;;;86.53;33.40;;;4.70;99.90;;;;;;5035480;28;20488;-67
2020/12/13 05:58:49;;;;;;;75.60;30.80;;;4.60;99.90;;;;;;5035712;28;20456;-64
2020/12/13 06:01:20;;;;;;;89.43;34.20;;;4.60;99.90;;;;;;5035104;28;20480;-64
2020/12/13 06:03:50;;;;;;;78.03;31.13;;;4.60;99.90;;;;;;5035617;28;20437;-64
2020/12/13 06:06:22;;;;;;;80.57;33.37;;;4.60;99.90;;;;;;5040099;28;20466;-64
2020/12/13 06:09:09;;;;;;;70.63;32.27;;;4.60;99.90;;;;;;5041851;28;20455;-64
2020/12/13 06:11:41;;;;;;;64.17;31.00;;;4.60;99.90;;;;;;5035415;28;20490;-64
2020/12/13 06:14:13;;;;;;;75.80;31.87;;;4.60;99.90;;;;;;5035342;28;20456;-64
2020/12/13 06:16:39;;;;;;;71.23;30.40;;;4.60;99.90;;;;;;5035667;28;20441;-64
2020/12/13 06:19:08;;;;;;;70.50;31.70;;;4.60;99.90;;;;;;5035652;28;20797;-64
2020/12/13 06:21:34;;;;;;;64.73;30.20;;;4.60;99.90;;;;;;5036775;28;20488;-63
2020/12/13 06:24:02;;;;;;;57.93;29.60;;;4.60;99.90;;;;;;5035687;28;20519;-67
2020/12/13 06:26:29;;;;;;;64.97;29.83;;;4.60;99.90;;;;;;5035616;28;20496;-65
2020/12/13 06:28:56;;;;;;;66.90;30.90;;;4.60;99.90;;;;;;5035564;28;20514;-64
2020/12/13 06:31:22;;;;;;;73.40;31.50;;;4.60;99.90;;;;;;5035710;28;20449;-63
2020/12/13 06:33:49;;;;;;;64.37;30.03;;;4.60;99.90;;;;;;5037765;28;20550;-64
2020/12/13 06:36:15;;;;;;;65.03;29.57;;;4.60;99.90;;;;;;5036173;28;20456;-64
2020/12/13 06:38:42;;;;;;;60.97;29.53;;;4.60;99.90;;;;;;5036333;28;20901;-64
2020/12/13 06:41:09;;;;;;;67.80;32.30;;;4.60;99.90;;;;;;5035680;28;20476;-64
2020/12/13 06:43:40;;;;;;;65.00;30.60;;;4.60;99.90;;;;;;5035265;28;20787;-64
2020/12/13 06:46:13;;;;;;;65.90;30.23;;;4.60;99.90;;;;;;5035464;28;20460;-63
2020/12/13 06:48:41;;;;;;;63.47;31.00;;;4.60;99.90;;;;;;5034968;28;20510;-64
2020/12/13 06:51:16;;;;;;;63.77;30.87;;;4.60;99.90;;;;;;5035211;28;20514;-64
2020/12/13 06:53:43;;;;;;;67.70;29.70;;;4.60;99.90;;;;;;5034823;28;20522;-64
2020/12/13 06:56:10;;;;;;;64.70;30.23;;;4.60;99.90;;;;;;5034660;28;20452;-63
2020/12/13 06:58:43;;;;;;;61.13;29.90;;;4.60;99.90;;;;;;5034690;28;20538;-63
2020/12/13 07:01:20;;;;;;;56.27;29.90;;;4.60;99.90;;;;;;5034524;28;20736;-64
2020/12/13 07:03:47;;;;;;;61.23;31.50;;;4.60;99.90;;;;;;5034388;28;20486;-62
2020/12/13 07:06:19;;;;;;;65.97;30.60;;;4.60;99.90;;;;;;5034850;28;20455;-63
2020/12/13 07:08:51;;;;;;;65.23;30.93;;;4.60;99.90;;;;;;5035075;28;20451;-63
2020/12/13 07:11:19;;;;;;;75.80;31.47;;;4.60;99.90;;;;;;5034861;28;20819;-64
2020/12/13 07:13:47;;;;;;;60.93;28.57;;;4.50;99.90;;;;;;5035247;28;20488;-64
2020/12/13 07:16:28;;;;;;;65.67;28.87;;;4.50;99.90;;;;;;5035172;28;20452;-64
2020/12/13 07:19:01;;;;;;;61.77;29.87;;;4.50;99.90;;;;;;5034314;28;20441;-64
2020/12/13 07:21:27;;;;;;;66.67;30.70;;;4.50;99.90;;;;;;5034355;28;20484;-64
2020/12/13 07:23:57;;;;;;;64.50;30.70;;;4.50;99.90;;;;;;5034510;28;20459;-64
2020/12/13 07:26:23;;;;;;;60.93;29.93;;;4.50;99.90;;;;;;5034324;28;20451;-63
2020/12/13 07:28:50;;;;;;;65.67;29.17;;;4.50;99.90;;;;;;5034420;28;20452;-64
2020/12/13 07:31:18;;;;;;;57.73;29.73;;;4.50;99.90;;;;;;5034477;28;20455;-63
2020/12/13 07:33:45;;;;;;;68.20;31.27;;;4.50;99.90;;;;;;5034874;28;20456;-63
2020/12/13 07:36:12;;;;;;;54.17;30.23;;;4.50;99.90;;;;;;5034401;28;20456;-64
2020/12/13 07:38:39;;;;;;;71.87;31.30;;;4.50;99.90;;;;;;5035124;28;20522;-57
2020/12/13 07:41:17;;;;;;;63.40;29.73;;;4.50;99.90;;;;;;5034652;28;20550;-57
2020/12/13 07:43:54;;;;;;;66.70;29.70;;;4.60;99.90;;;;;;5034817;28;20447;-59
2020/12/13 07:46:20;;;;;;;60.93;30.07;;;4.60;99.90;;;;;;5035550;28;20460;-58
2020/12/13 07:48:46;;;;;;;60.10;30.60;;;4.60;99.90;;;;;;5038620;28;20525;-57
2020/12/13 07:51:12;;;;;;;64.27;31.13;;;4.60;99.90;;;;;;5038725;28;20448;-58
2020/12/13 07:53:39;;;;;;;57.07;27.83;;;4.60;99.90;;;;;;5038171;28;20979;-59
2020/12/13 07:56:05;;;;;;;56.43;27.43;;;4.60;99.90;;;;;;5038309;28;20499;-64
2020/12/13 07:58:32;;;;;;;62.27;29.40;;;4.70;99.90;;;;;;5038184;28;20452;-64
2020/12/13 08:01:09;;;;;;;55.63;29.20;;;4.70;99.90;;;;;;5037688;28;20456;-63
2020/12/13 08:03:42;;;;;;;64.13;31.87;;;4.70;99.90;;;;;;5038690;28;20451;-64
2020/12/13 08:06:09;;;;;;;59.80;29.23;;;4.80;99.90;;;;;;5038105;28;20448;-63
2020/12/13 08:08:42;;;;;;;57.43;29.70;;;4.80;99.90;;;;;;5038452;28;20526;-63
2020/12/13 08:11:10;;;;;;;58.83;29.20;;;4.80;99.90;;;;;;5039560;28;20523;-65
2020/12/13 08:13:45;;;;;;;55.90;30.53;;;4.80;99.90;;;;;;5040561;28;20534;-65
2020/12/13 08:16:13;;;;;;;62.63;29.67;;;4.80;99.90;;;;;;5041226;28;20797;-62
2020/12/13 08:18:41;;;;;;;60.00;29.57;;;4.80;99.90;;;;;;5039675;28;20451;-69
2020/12/13 08:21:09;;;;;;;55.37;27.73;;;4.80;99.90;;;;;;5040961;28;20490;-69
2020/12/13 08:23:38;;;;;;;56.17;27.90;;;4.80;99.90;;;;;;5041191;28;20460;-72
2020/12/13 08:26:05;;;;;;;59.53;28.63;;;4.80;99.90;;;;;;5044055;28;20449;-55
2020/12/13 08:28:33;;;;;;;53.27;29.40;;;4.80;99.90;;;;;;5044503;28;20452;-59
2020/12/13 08:31:00;;;;;;;66.00;29.10;;;4.90;99.90;;;;;;5042659;28;20487;-61
2020/12/13 08:33:27;;;;;;;61.93;29.93;;;4.90;99.90;;;;;;5038503;28;20522;-56
2020/12/13 08:35:53;;;;;;;62.50;29.20;;;4.90;99.90;;;;;;5037217;28;20452;-65
2020/12/13 08:38:21;;;;;;;57.03;29.20;;;4.90;99.90;;;;;;5037003;28;20519;-65
2020/12/13 08:40:49;;;;;;;62.27;28.87;;;4.90;99.90;;;;;;5037724;28;20444;-65
2020/12/13 08:43:18;;;;;;;60.53;28.87;;;4.90;99.90;;;;;;5036806;28;20554;-65
2020/12/13 08:45:52;;;;;;;58.23;29.93;;;5.00;99.90;;;;;;5036513;28;20549;-65
2020/12/13 08:48:24;;;;;;;56.57;30.47;;;4.90;99.90;;;;;;5036935;28;20471;-65
2020/12/13 08:51:03;;;;;;;53.27;28.30;;;5.00;99.90;;;;;;5036564;28;20440;-65
2020/12/13 08:53:30;;;;;;;58.73;28.30;;;5.00;99.90;;;;;;5036472;28;20436;-64
2020/12/13 08:56:04;;;;;;;55.80;28.20;;;5.00;99.90;;;;;;5036410;28;20452;-65
2020/12/13 08:58:30;;;;;;;57.03;28.80;;;5.00;99.90;;;;;;5035975;28;20762;-64
2020/12/13 09:01:06;;;;;;;54.67;27.63;;;5.00;99.90;;;;;;5035967;28;20456;-65
2020/12/13 09:03:33;;;;;;;58.60;28.47;;;5.10;99.90;;;;;;5035907;28;20466;-65
2020/12/13 09:05:59;;;;;;;54.17;27.70;;;5.10;99.90;;;;;;5036460;28;20456;-64
2020/12/13 09:08:25;;;;;;;59.40;27.67;;;5.20;99.90;;;;;;5036239;28;20517;-65
2020/12/13 09:10:52;;;;;;;60.13;29.87;;;5.20;99.90;;;;;;5036393;28;20839;-65
2020/12/13 09:13:18;;;;;;;57.43;27.23;;;5.30;99.90;;;;;;5036362;28;20456;-65
2020/12/13 09:15:45;;;;;;;55.83;28.97;;;5.30;99.90;;;;;;5037070;28;20459;-65
2020/12/13 09:18:11;;;;;;;56.20;27.60;;;5.30;99.90;;;;;;5037121;28;20829;-65
2020/12/13 09:20:38;;;;;;;57.50;29.00;;;5.30;99.90;;;;;;5036972;28;20776;-65
2020/12/13 09:23:06;;;;;;;54.47;28.20;;;5.30;99.90;;;;;;5036539;28;20861;-65
2020/12/13 09:25:36;;;;;;;52.57;28.70;;;5.30;99.90;;;;;;5036333;28;20452;-65
2020/12/13 09:28:03;;;;;;;58.53;27.90;;;5.30;99.90;;;;;;5036304;28;20463;-64
2020/12/13 09:30:29;;;;;;;59.07;28.73;;;5.30;99.90;;;;;;5036654;28;20456;-64
2020/12/13 09:32:55;;;;;;;53.73;28.33;;;5.40;99.90;;;;;;5036389;28;20452;-64
2020/12/13 09:35:22;;;;;;;58.67;29.37;;;5.40;99.90;;;;;;5036433;28;20452;-65
2020/12/13 09:37:49;;;;;;;58.80;31.77;;;5.50;99.90;;;;;;5037439;28;20467;-65
2020/12/13 09:40:15;;;;;;;61.03;28.27;;;5.50;99.90;;;;;;5036717;28;20522;-64
2020/12/13 09:42:41;;;;;;;49.27;29.57;;;5.60;99.90;;;;;;5036699;28;20480;-59
2020/12/13 09:45:07;;;;;;;50.07;29.30;;;5.60;99.90;;;;;;5036019;28;20514;-60
2020/12/13 09:47:33;;;;;;;53.27;26.90;;;5.60;99.90;;;;;;5035618;28;20460;-59
2020/12/13 09:50:00;;;;;;;51.20;27.70;;;5.70;99.90;;;;;;5035412;28;20554;-62
2020/12/13 09:52:26;;;;;;;51.70;26.20;;;5.70;99.90;;;;;;5035717;28;20452;-64
2020/12/13 09:54:53;;;;;;;58.63;28.90;;;5.80;99.90;;;;;;5035734;28;20538;-66
2020/12/13 09:57:19;;;;;;;56.20;29.57;;;5.80;99.90;;;;;;5035845;28;20456;-66
2020/12/13 09:59:45;;;;;;;54.60;29.27;;;5.80;99.90;;;;;;5035590;28;20452;-66
2020/12/13 10:02:11;;;;;;;49.00;28.03;;;5.90;99.90;;;;;;5035810;28;20472;-65
2020/12/13 10:04:38;;;;;;;44.57;25.77;;;5.90;99.90;;;;;;5034895;28;20563;-65
2020/12/13 10:09:54;;;;;;;52.47;27.27;;;6.00;99.90;;;;;;4978932;28;20447;-65
2020/12/13 10:12:22;;;;;;;49.47;26.43;;;6.00;99.90;;;;;;5036414;28;20428;-64
2020/12/13 10:14:48;;;;;;;47.43;27.20;;;6.00;99.90;;;;;;5036289;28;20456;-65
2020/12/13 10:17:14;;;;;;;43.80;26.50;;;6.10;99.90;;;;;;5036180;28;20786;-65
2020/12/13 10:19:40;;;;;;;48.63;25.67;;;6.10;99.90;;;;;;5035038;28;20526;-64
2020/12/13 10:22:06;;;;;;;48.20;25.37;;;6.10;99.90;;;;;;5035299;28;20546;-64
2020/12/13 10:24:32;;;;;;;48.73;25.40;;;6.10;99.90;;;;;;5035974;28;20599;-65
2020/12/13 10:26:59;;;;;;;45.70;25.90;;;6.10;99.90;;;;;;5034962;28;20552;-65
2020/12/13 10:29:25;;;;;;;46.23;24.70;;;6.10;99.90;;;;;;5035576;28;20453;-64
2020/12/13 10:31:51;;;;;;;44.30;26.00;;;6.20;99.90;;;;;;5035460;28;20818;-64
2020/12/13 10:34:18;;;;;;;46.77;26.57;;;6.20;99.90;;;;;;5035243;28;20459;-65
2020/12/13 10:36:44;;;;;;;46.30;24.40;;;6.30;99.90;;;;;;5034255;28;20453;-65
2020/12/13 10:39:10;;;;;;;47.97;26.83;;;6.30;99.90;;;;;;5034596;28;20546;-66
2020/12/13 10:41:38;;;;;;;43.00;25.53;;;6.40;99.90;;;;;;5034860;28;20484;-65
2020/12/13 10:44:05;;;;;;;47.07;25.33;;;6.40;99.90;;;;;;5034903;28;20984;-66
2020/12/13 10:46:31;;;;;;;41.23;23.40;;;6.40;99.90;;;;;;5034769;28;20484;-65
2020/12/13 10:48:58;;;;;;;47.20;26.33;;;6.40;99.90;;;;;;5035244;28;20468;-65
2020/12/13 10:51:24;;;;;;;50.93;26.70;;;6.40;99.90;;;;;;5034653;28;20938;-65
2020/12/13 10:53:50;;;;;;;50.30;27.23;;;6.40;99.90;;;;;;5035389;28;20511;-65
2020/12/13 10:56:16;;;;;;;44.17;25.57;;;6.40;99.90;;;;;;5035872;28;20842;-65
2020/12/13 10:58:44;;;;;;;49.87;25.30;;;6.40;99.90;;;;;;5034817;28;20451;-65
2020/12/13 11:01:11;;;;;;;44.20;23.60;;;6.40;99.90;;;;;;5036382;28;20460;-65
2020/12/13 11:03:37;;;;;;;44.47;24.73;;;6.40;99.90;;;;;;5036526;28;20452;-65
2020/12/13 11:06:04;;;;;;;44.60;24.83;;;6.40;99.90;;;;;;5036146;28;20510;-59
2020/12/13 11:08:30;;;;;;;39.67;22.87;;;6.40;99.90;;;;;;5036627;28;20463;-64
2020/12/13 11:10:56;;;;;;;42.07;23.57;;;6.50;99.90;;;;;;5035455;28;20578;-64
2020/12/13 11:13:22;;;;;;;41.80;24.83;;;6.50;99.90;;;;;;5036185;28;20530;-64
2020/12/13 11:15:48;;;;;;;47.13;24.73;;;6.70;99.90;;;;;;5034527;28;20980;-65
2020/12/13 11:18:15;;;;;;;40.17;23.30;;;6.70;99.90;;;;;;5035670;28;20452;-65
2020/12/13 11:20:41;;;;;;;43.37;25.43;;;6.70;99.90;;;;;;5035490;28;20534;-66
2020/12/13 11:23:09;;;;;;;37.47;23.50;;;6.80;99.90;;;;;;5040226;28;20511;-64
2020/12/13 11:25:35;;;;;;;42.90;23.87;;;6.80;99.90;;;;;;5039421;28;20555;-59
2020/12/13 11:28:02;;;;;;;43.60;24.50;;;6.80;99.90;;;;;;5039606;28;20459;-59
2020/12/13 11:30:28;;;;;;;40.33;23.13;;;6.80;99.90;;;;;;5038865;28;20466;-60
2020/12/13 11:32:54;;;;;;;40.90;25.00;;;6.70;99.90;;;;;;5039443;28;20971;-59
2020/12/13 11:35:21;;;;;;;40.27;23.30;;;6.70;99.90;;;;;;5040015;28;20452;-64
2020/12/13 11:37:48;;;;;;;38.03;24.60;;;6.80;99.90;;;;;;5038623;28;20456;-60
2020/12/13 11:40:14;;;;;;;42.20;25.97;;;6.80;99.90;;;;;;5038227;28;20456;-64
2020/12/13 11:42:41;;;;;;;43.50;24.23;;;6.90;99.90;;;;;;5043033;28;20471;-65
2020/12/13 11:45:08;;;;;;;46.03;27.00;;;6.90;99.90;;;;;;5038201;28;20456;-65
2020/12/13 11:47:34;;;;;;;48.67;26.63;;;7.00;99.90;;;;;;5037733;28;20451;-64
2020/12/13 11:50:00;;;;;;;41.37;25.67;;;7.00;99.90;;;;;;5037632;28;20763;-60
2020/12/13 11:52:27;;;;;;;40.37;25.43;;;7.10;99.90;;;;;;5037725;28;20921;-60
2020/12/13 11:54:53;;;;;;;41.63;24.17;;;7.20;99.90;;;;;;5038009;28;20460;-65
2020/12/13 11:57:21;;;;;;;40.67;24.53;;;7.20;99.90;;;;;;5037898;28;20452;-65
2020/12/13 11:59:47;;;;;;;43.53;25.47;;;7.20;99.90;;;;;;5037345;28;20869;-65
2020/12/13 12:02:13;;;;;;;45.10;24.67;;;7.20;99.90;;;;;;5038520;28;20538;-65
2020/12/13 12:04:40;;;;;;;42.90;25.83;;;7.20;99.90;;;;;;5038561;28;20478;-66
2020/12/13 12:07:06;;;;;;;42.50;25.77;;;7.20;99.90;;;;;;5037567;28;20463;-66
2020/12/13 12:09:33;;;;;;;43.70;24.93;;;7.20;99.90;;;;;;5037702;28;20456;-64
2020/12/13 12:11:59;;;;;;;47.53;27.23;;;7.10;99.90;;;;;;5037809;28;20448;-66
2020/12/13 12:14:25;;;;;;;42.90;24.53;;;7.10;99.90;;;;;;5038482;28;20482;-65
2020/12/13 12:16:51;;;;;;;44.97;25.63;;;7.10;99.90;;;;;;5039534;28;20836;-65
2020/12/13 12:19:17;;;;;;;47.03;26.60;;;7.10;99.90;;;;;;5040824;28;20460;-65
2020/12/13 12:21:46;;;;;;;50.43;28.00;;;7.10;99.90;;;;;;5039040;28;20884;-66
2020/12/13 12:24:15;;;;;;;46.10;26.20;;;7.10;99.90;;;;;;5038629;28;20452;-61
2020/12/13 12:26:43;;;;;;;48.50;26.77;;;7.10;99.90;;;;;;5037907;28;20834;-59
2020/12/13 12:29:10;;;;;;;48.43;27.90;;;7.10;99.90;;;;;;5038682;28;20519;-59
2020/12/13 12:31:36;;;;;;;46.70;26.20;;;7.10;99.90;;;;;;5038535;28;20968;-61
2020/12/13 12:34:03;;;;;;;49.53;28.00;;;7.10;99.90;;;;;;5037194;28;20462;-59
2020/12/13 12:36:29;;;;;;;43.67;26.20;;;7.10;99.90;;;;;;5037766;28;20520;-60
2020/12/13 12:38:55;;;;;;;44.10;24.47;;;7.10;99.90;;;;;;5037251;28;20460;-60